Latest Weather Observations for Kiama

IDN60801

Issued at 3:05 pm EDT Friday 21 November 2014 (issued every 30 minutes, with the page automatically refreshed every 10 minutes)

About weather observations | Map of weather stations | Latest weather observations for NSW | Other Formats
Station Details ID: 068242 Name: KIAMA (BOMBO HEADLAND) Lat: -34.65 Lon: 150.86 Height: 15.5 m
Data from the previous 72 hours. | See also: Recent months at Kiama
Date/Time
EDT
Temp
°C
App
Temp
°C
Dew
Point
Rel
Hum
%
Delta-T
°C
Wind Press
QNH
hPa
Press
MSL
hPa
Rain
since 9 am
mm
Dir
 
Spd
km/h
Gust
km/h
Spd
kts
Gust
kts
21/03:00pm 25.2 27.4 19.3 70 3.8 E 6 9 3 5 - - 0.0
21/02:30pm 25.2 27.2 19.1 69 3.9 ENE 7 13 4 7 - - 0.0
21/02:00pm 25.1 26.8 18.5 67 4.2 E 7 11 4 6 - - 0.0
21/01:30pm 24.6 26.0 17.8 66 4.3 E 7 11 4 6 - - 0.0
21/01:00pm 24.4 25.6 17.4 65 4.4 ESE 7 9 4 5 - - 0.0
21/12:30pm 24.8 26.1 17.5 64 4.6 ENE 7 11 4 6 - - 0.0
21/12:00pm 24.5 25.3 17.2 63 4.5 NE 9 13 5 7 - - 0.0
21/11:30am 24.4 24.7 17.1 63 4.5 NE 11 19 6 10 - - 0.0
21/11:00am 24.3 25.1 17.3 65 4.3 NE 9 13 5 7 - - 0.0
21/10:30am 23.5 24.8 16.1 63 4.5 SE 4 7 2 4 - - 0.0
21/10:00am 23.4 24.0 15.7 62 4.6 ESE 7 9 4 5 - - 0.0
21/09:30am 22.9 23.6 17.1 70 3.6 SSE 9 13 5 7 - - 0.0
21/09:00am 21.7 19.8 15.8 69 3.5 SSE 20 22 11 12 - - 0.0
21/08:30am 22.1 19.8 15.7 67 3.8 S 22 26 12 14 - - 0.0
21/08:00am 23.0 22.6 16.1 65 4.2 S 13 19 7 10 - - 0.0
21/07:30am 22.2 22.4 15.8 67 3.8 S 9 15 5 8 - - 0.0
21/07:00am 21.6 20.6 15.7 69 3.5 S 15 19 8 10 - - 0.0
21/06:30am 21.4 20.4 15.5 69 3.5 S 15 20 8 11 - - 0.0
21/06:00am 21.6 20.0 15.9 70 3.4 S 19 24 10 13 - - 0.0
21/05:30am 20.5 21.9 16.3 77 2.5 NNE 4 9 2 5 - - 0.0
21/05:00am 20.6 19.9 16.4 77 2.5 S 15 26 8 14 - - 0.0
21/04:30am 21.0 18.1 17.0 78 2.4 S 28 39 15 21 - - 0.0
21/04:00am 22.6 18.6 16.6 69 3.7 S 33 50 18 27 - - 0.0
21/03:52am 23.7 20.9 19.0 75 3.0 S 32 50 17 27 - - 0.0
21/03:51am 23.3 21.2 19.0 77 2.7 S 28 41 15 22 - - 0.0
21/03:30am 21.3 22.2 18.3 83 1.9 N 11 17 6 9 - - 0.0
21/03:00am 21.2 22.3 18.9 87 1.4 NNW 11 19 6 10 - - 0.0
21/02:30am 20.7 22.4 18.6 88 1.3 W 7 13 4 7 - - 0.0
21/02:00am 20.7 22.6 19.0 90 1.1 NNW 7 11 4 6 - - 0.0
21/01:30am 20.4 21.4 18.7 90 1.1 N 11 13 6 7 - - 0.0
21/01:00am 20.4 21.4 18.7 90 1.1 N 11 13 6 7 - - 0.0
21/12:30am 20.6 21.2 18.7 89 1.2 N 13 15 7 8 - - 0.0
21/12:00am 20.9 22.0 18.8 88 1.3 N 11 13 6 7 - - 0.0
 
Date/Time
EDT
Temp
°C
App
Temp
°C
Dew
Point
Rel
Hum
%
Delta-T
°C
Wind Press
QNH
hPa
Press
MSL
hPa
Rain
since 9 am
mm
Dir
 
Spd
km/h
Gust
km/h
Spd
kts
Gust
kts
20/11:30pm 20.6 21.3 18.0 85 1.6 N 11 13 6 7 - - 0.0
20/11:00pm 20.5 20.8 17.1 81 2.1 N 11 13 6 7 - - 0.0
20/10:30pm 23.1 24.8 19.3 79 2.4 NW 9 11 5 6 - - 0.0
20/10:00pm 22.4 23.8 19.6 84 1.8 WNW 11 13 6 7 - - 0.0
20/09:30pm 21.6 23.8 19.3 87 1.5 WNW 6 13 3 7 - - 0.0
20/09:00pm 21.3 23.2 19.0 87 1.5 N 7 11 4 6 - - 0.0
20/08:30pm 21.4 22.6 19.0 86 1.5 N 11 15 6 8 - - 0.0
20/08:00pm 21.4 22.5 18.8 85 1.6 N 11 17 6 9 - - 0.0
20/07:30pm 22.0 21.6 18.8 82 2.0 N 19 24 10 13 - - 0.0
20/07:00pm 22.8 22.6 18.6 77 2.6 N 17 22 9 12 - - 0.0
20/06:30pm 23.5 23.4 18.8 75 3.0 N 17 22 9 12 - - 0.0
20/06:00pm 23.6 23.9 18.7 74 3.1 N 15 20 8 11 - - 0.0
20/05:30pm 23.5 23.8 18.8 75 3.0 N 15 20 8 11 - - 0.0
20/05:00pm 23.3 23.1 18.4 74 3.1 N 17 24 9 13 - - 0.0
20/04:30pm 23.3 22.7 18.4 74 3.1 N 19 26 10 14 - - 0.0
20/04:00pm 23.4 22.5 18.3 73 3.2 N 20 30 11 16 - - 0.0
20/03:30pm 23.7 23.2 18.6 73 3.2 N 19 24 10 13 - - 0.0
20/03:00pm 23.5 23.0 18.6 74 3.1 N 19 24 10 13 - - 0.0
20/02:30pm 24.1 23.6 18.7 72 3.4 N 19 22 10 12 - - 0.0
20/02:00pm 24.3 25.4 18.9 72 3.4 N 11 20 6 11 - - 0.0
20/01:30pm 24.6 25.2 19.4 73 3.3 NNE 15 22 8 12 - - 0.0
20/01:00pm 23.7 23.3 19.0 75 3.0 NNE 19 26 10 14 - - 0.0
20/12:30pm 24.0 23.8 19.3 75 3.0 N 19 24 10 13 - - 0.0
20/12:00pm 23.4 22.8 18.9 76 2.9 NNE 20 30 11 16 - - 0.0
20/11:30am 23.3 22.8 19.0 77 2.7 NNE 20 28 11 15 - - 0.0
20/11:00am 23.0 22.2 18.5 76 2.8 NNE 20 26 11 14 - - 0.0
20/10:30am 22.8 21.9 18.1 75 2.9 NNE 20 28 11 15 - - 0.0
20/10:00am 22.8 22.9 18.3 76 2.8 NNE 15 22 8 12 - - 0.0
20/09:30am 22.2 21.4 17.1 73 3.1 N 17 22 9 12 - - 0.0
20/09:00am 22.3 21.5 17.2 73 3.1 N 17 24 9 13 - - 0.0
20/08:30am 22.2 21.2 16.7 71 3.4 NNE 17 24 9 13 - - 0.0
20/08:00am 22.2 22.5 16.9 72 3.2 NNE 11 19 6 10 - - 0.0
20/07:30am 21.2 20.9 16.4 74 2.9 N 13 19 7 10 - - 0.0
20/07:00am 20.5 20.5 16.3 77 2.5 N 11 15 6 8 - - 0.0
20/06:30am 19.9 20.6 16.0 78 2.3 N 7 15 4 8 - - 0.0
20/06:00am 19.8 19.3 15.9 78 2.3 NNW 13 19 7 10 - - 0.0
20/05:30am 19.3 18.8 15.8 80 2.1 N 13 20 7 11 - - 0.0
20/05:00am 18.9 19.0 15.4 80 2.1 NW 9 13 5 7 - - 0.0
20/04:30am 19.5 19.0 15.8 79 2.2 NNW 13 17 7 9 - - 0.0
20/04:00am 19.8 19.6 15.7 77 2.4 NNW 11 17 6 9 - - 0.0
20/03:30am 20.4 18.1 15.8 75 2.7 NNW 22 30 12 16 - - 0.0
20/03:00am 20.4 18.1 15.8 75 2.7 NNW 22 33 12 18 - - 0.0
20/02:30am 20.2 19.2 15.6 75 2.7 NNW 15 24 8 13 - - 0.0
20/02:00am 19.8 18.7 15.4 76 2.6 NNW 15 20 8 11 - - 0.0
20/01:30am 19.9 18.9 15.5 76 2.6 NNW 15 24 8 13 - - 0.0
20/01:00am 20.0 18.3 15.8 77 2.5 NNW 19 28 10 15 - - 0.0
20/12:30am 19.8 18.9 15.9 78 2.3 N 15 26 8 14 - - 0.0
20/12:00am 19.9 19.8 16.0 78 2.3 N 11 17 6 9 - - 0.0
 
Date/Time
EDT
Temp
°C
App
Temp
°C
Dew
Point
Rel
Hum
%
Delta-T
°C
Wind Press
QNH
hPa
Press
MSL
hPa
Rain
since 9 am
mm
Dir
 
Spd
km/h
Gust
km/h
Spd
kts
Gust
kts
19/11:30pm 19.8 20.0 15.7 77 2.4 N 9 19 5 10 - - 0.0
19/11:00pm 19.9 17.5 15.5 76 2.6 N 22 32 12 17 - - 0.0
19/10:30pm 19.8 18.3 15.2 75 2.7 N 17 24 9 13 - - 0.0
19/10:00pm 19.5 18.7 15.2 76 2.5 NNW 13 19 7 10 - - 0.0
19/09:30pm 19.5 18.8 15.4 77 2.4 N 13 20 7 11 - - 0.0
19/09:00pm 19.4 17.9 15.3 77 2.4 N 17 28 9 15 - - 0.0
19/08:30pm 19.6 16.0 15.3 76 2.5 N 28 35 15 19 - - 0.0
19/08:00pm 19.9 17.5 15.5 76 2.6 N 22 32 12 17 - - 0.0
19/07:30pm 19.7 16.8 15.1 75 2.7 N 24 35 13 19 - - 0.0
19/07:00pm 19.8 16.6 15.2 75 2.7 NNE 26 37 14 20 - - 0.0
19/06:30pm 19.8 16.5 15.0 74 2.8 NNE 26 39 14 21 - - 0.0
19/06:00pm 19.9 16.6 15.1 74 2.8 NNE 26 37 14 20 - - 0.0
19/05:30pm 19.8 16.4 14.8 73 2.9 NNE 26 37 14 20 - - 0.0
19/05:00pm 19.9 16.2 14.9 73 2.9 NNE 28 39 15 21 - - 0.0
19/04:30pm 20.0 16.2 14.8 72 3.0 NNE 28 35 15 19 - - 0.0
19/04:00pm 20.1 16.7 14.7 71 3.2 NNE 26 35 14 19 - - 0.0
19/03:30pm 20.3 17.2 14.4 69 3.4 NNE 24 32 13 17 - - 0.0
19/03:00pm 20.6 17.6 14.7 69 3.5 NNE 24 32 13 17 - - 0.0
19/02:30pm 20.9 18.0 15.0 69 3.5 NE 24 33 13 18 - - 0.0
19/02:00pm 20.9 18.0 15.0 69 3.5 NNE 24 33 13 18 - - 0.0
19/01:30pm 20.6 17.1 14.5 68 3.6 NE 26 37 14 20 - - 0.0
19/01:00pm 21.3 18.2 14.5 65 4.0 NE 24 30 13 16 - - 0.0
19/12:30pm 22.0 19.9 15.1 65 4.1 NNE 20 32 11 17 - - 0.0
19/12:00pm 21.8 19.7 15.2 66 3.9 NE 20 28 11 15 - - 0.0
19/11:30am 22.0 20.0 15.6 67 3.8 NE 20 28 11 15 - - 0.0
19/11:00am 21.8 20.0 15.4 67 3.8 NNE 19 28 10 15 - - 0.0
19/10:30am 20.1 17.9 14.5 70 3.3 NE 19 28 10 15 - - 0.0
19/10:00am 20.1 18.2 14.2 69 3.4 NNE 17 22 9 12 - - 0.0
19/09:30am 20.5 18.3 14.4 68 3.6 NE 19 24 10 13 - - 0.0
19/09:00am 20.4 19.2 14.1 67 3.6 NE 13 17 7 9 - - 0.0
19/08:30am 20.2 19.1 14.3 69 3.4 NE 13 20 7 11 - - 0.0
19/08:00am 20.0 19.7 14.4 70 3.3 NE 9 15 5 8 - - 0.0
19/07:30am 19.3 19.1 14.6 74 2.7 NE 9 13 5 7 - - 0.0
19/07:00am 18.7 18.7 14.2 75 2.6 NE 7 11 4 6 - - 0.0
19/06:30am 18.4 18.6 14.1 76 2.5 NE 6 9 3 5 - - 0.0
19/06:00am 18.3 18.4 13.8 75 2.6 ENE 6 9 3 5 - - 0.0
19/05:30am 18.1 17.9 13.6 75 2.6 E 7 9 4 5 - - 0.0
19/05:00am 18.1 18.1 13.6 75 2.6 E 6 9 3 5 - - 0.0
19/04:30am 18.1 17.9 13.6 75 2.6 E 7 11 4 6 - - 0.0
19/04:00am 18.1 18.0 13.8 76 2.5 E 7 11 4 6 - - 0.0
19/03:30am 18.1 18.0 13.8 76 2.5 ENE 7 9 4 5 - - 0.0
19/03:00am 18.1 18.0 13.8 76 2.5 E 7 13 4 7 - - 0.0
19/02:30am 18.1 17.6 13.8 76 2.5 E 9 13 5 7 - - 0.0
19/02:00am 18.1 17.6 13.8 76 2.5 ESE 9 17 5 9 - - 0.0
19/01:30am 18.3 17.2 14.2 77 2.4 ESE 13 19 7 10 - - 0.0
19/01:00am 18.3 16.6 14.6 79 2.1 ESE 17 22 9 12 - - 0.0
19/12:30am 18.4 16.6 14.5 78 2.3 ESE 17 28 9 15 - - 0.0
19/12:00am 18.6 17.6 14.7 78 2.3 ESE 13 17 7 9 - - 0.0
 
Date/Time
EDT
Temp
°C
App
Temp
°C
Dew
Point
Rel
Hum
%
Delta-T
°C
Wind Press
QNH
hPa
Press
MSL
hPa
Rain
since 9 am
mm
Dir
 
Spd
km/h
Gust
km/h
Spd
kts
Gust
kts
18/11:30pm 18.7 18.5 14.6 77 2.4 E 9 17 5 9 - - 0.0
18/11:00pm 18.7 17.8 14.8 78 2.3 ESE 13 19 7 10 - - 0.0
18/10:30pm 18.7 17.4 14.8 78 2.3 ESE 15 20 8 11 - - 0.0
18/10:00pm 18.6 16.9 14.7 78 2.3 ESE 17 22 9 12 - - 0.0
18/09:30pm 18.8 16.7 15.1 79 2.2 SE 20 24 11 13 - - 0.0
18/09:00pm 18.7 16.8 15.2 80 2.1 ESE 19 22 10 12 - - 0.0
18/08:30pm 18.7 16.8 15.2 80 2.1 ESE 19 24 10 13 - - 0.0
18/08:00pm 18.7 16.7 15.4 81 1.9 SE 20 24 11 13 - - 0.0
18/07:30pm 18.6 16.5 15.3 81 1.9 ESE 20 26 11 14 - - 0.0
18/07:00pm 18.8 16.4 15.5 81 1.9 SE 22 28 12 15 - - 0.0
18/06:30pm 18.8 16.1 15.5 81 1.9 SE 24 28 13 15 - - 0.0
18/06:00pm 19.0 17.0 15.5 80 2.1 SE 20 26 11 14 - - 0.0
18/05:30pm 19.2 16.9 15.7 80 2.1 SE 22 28 12 15 - - 0.0
18/05:00pm 19.2 16.9 15.7 80 2.1 SE 22 28 12 15 - - 0.0
18/04:30pm 19.5 16.5 15.8 79 2.2 SSE 26 32 14 17 - - 0.0
18/04:00pm 19.4 15.6 15.7 79 2.2 SSE 30 33 16 18 - - 0.0
18/03:30pm 19.7 15.0 15.8 78 2.3 S 35 43 19 23 - - 0.0

Other Formats:

Comma delimited format used in spreadsheet applications
http://www.bom.gov.au/fwo/IDN60801/IDN60801.95749.axf

JavaScript Object Notation format (JSON) in row-major order
http://www.bom.gov.au/fwo/IDN60801/IDN60801.95749.json